createdAt,value
2023-04-16T00:00:09.053Z,0.91
2023-04-16T00:03:09.265Z,0.98
2023-04-16T00:06:08.996Z,0.92
2023-04-16T00:09:09.184Z,0.84
2023-04-16T00:12:08.992Z,0.89
2023-04-16T00:15:08.997Z,0.86
2023-04-16T00:18:09.037Z,0.7
2023-04-16T00:21:09.015Z,0.72
2023-04-16T00:24:09.076Z,0.66
2023-04-16T00:27:09.029Z,0.87
2023-04-16T00:30:09.081Z,0.91
2023-04-16T00:33:09.002Z,0.83
2023-04-16T00:36:09.025Z,0.56
2023-04-16T00:39:11.453Z,0.67
2023-04-16T00:42:09.097Z,0.68
2023-04-16T00:45:09.081Z,0.67
2023-04-16T00:48:09.018Z,0.63
2023-04-16T00:51:09.094Z,0.73
2023-04-16T00:54:09.058Z,0.71
2023-04-16T00:57:09.090Z,0.68
2023-04-16T01:00:09.129Z,0.67
2023-04-16T01:03:09.153Z,0.7
2023-04-16T01:06:09.103Z,0.61
2023-04-16T01:09:09.269Z,0.66
2023-04-16T01:12:09.114Z,0.66
2023-04-16T01:15:09.104Z,0.57
2023-04-16T01:18:09.077Z,0.87
2023-04-16T01:21:09.084Z,0.62
2023-04-16T01:24:09.029Z,0.61
2023-04-16T01:27:09.113Z,0.68
2023-04-16T01:30:09.105Z,0.58
2023-04-16T01:33:09.130Z,0.76
2023-04-16T01:36:09.089Z,0.86
2023-04-16T01:39:09.239Z,0.87
2023-04-16T01:42:09.078Z,0.8
2023-04-16T01:45:09.080Z,0.89
2023-04-16T01:48:09.048Z,0.56
2023-04-16T01:51:09.158Z,0.66
2023-04-16T01:54:09.137Z,0.74
2023-04-16T01:57:09.169Z,0.61
2023-04-16T02:00:09.120Z,0.93
2023-04-16T02:03:09.259Z,0.74
2023-04-16T02:06:09.146Z,0.58
2023-04-16T02:09:09.207Z,0.76
2023-04-16T02:12:09.093Z,0.69
2023-04-16T02:15:09.082Z,0.71
2023-04-16T02:18:09.189Z,0.49
2023-04-16T02:21:09.173Z,0.62
2023-04-16T02:24:09.156Z,0.57
2023-04-16T02:27:09.162Z,0.64
2023-04-16T02:30:09.101Z,0.76
2023-04-16T02:33:09.133Z,0.74
2023-04-16T02:36:09.154Z,0.73
2023-04-16T02:39:09.460Z,0.79
2023-04-16T02:42:09.125Z,0.85
2023-04-16T02:45:09.162Z,0.97
2023-04-16T02:48:09.236Z,0.86
2023-04-16T02:51:09.133Z,0.95
2023-04-16T02:54:09.110Z,0.8
2023-04-16T02:57:09.129Z,0.92
2023-04-16T03:00:09.208Z,0.86
2023-04-16T03:03:09.269Z,0.79
2023-04-16T03:06:09.129Z,0.85
2023-04-16T03:09:09.416Z,0.77
2023-04-16T03:12:09.191Z,0.62
2023-04-16T03:15:09.217Z,0.75
2023-04-16T03:18:09.149Z,0.94
2023-04-16T03:21:09.232Z,0.65
2023-04-16T03:24:09.137Z,0.93
2023-04-16T03:27:09.232Z,0.66
2023-04-16T03:30:09.228Z,0.72
2023-04-16T03:33:09.172Z,0.78
2023-04-16T03:36:09.172Z,1.12
2023-04-16T03:39:09.355Z,1.2
2023-04-16T03:42:09.270Z,0.94
2023-04-16T03:45:09.180Z,0.73
2023-04-16T03:48:09.188Z,0.7
2023-04-16T03:51:09.242Z,0.93
2023-04-16T03:54:09.187Z,0.91
2023-04-16T03:57:09.167Z,0.99
2023-04-16T04:00:09.280Z,1.09
2023-04-16T04:03:09.408Z,0.93
2023-04-16T04:06:09.270Z,1.17
2023-04-16T04:09:09.332Z,1.13
2023-04-16T04:12:09.198Z,0.76
2023-04-16T04:15:09.252Z,1.1
2023-04-16T04:18:09.166Z,1.07
2023-04-16T04:21:09.226Z,1.21
2023-04-16T04:24:09.272Z,1.14
2023-04-16T04:27:09.209Z,1.12
2023-04-16T04:30:09.205Z,1.03
2023-04-16T04:33:09.221Z,1
2023-04-16T04:36:09.273Z,0.89
2023-04-16T04:39:09.299Z,1.05
2023-04-16T04:42:09.185Z,0.81
2023-04-16T04:45:09.206Z,0.88
2023-04-16T04:48:09.239Z,1.2
2023-04-16T04:51:09.217Z,1.16
2023-04-16T04:54:09.289Z,1.19
2023-04-16T04:57:09.228Z,1.04
2023-04-16T05:00:09.209Z,1.39
2023-04-16T05:03:09.346Z,1.3
2023-04-16T05:06:09.294Z,1.21
2023-04-16T05:09:09.404Z,0.87
2023-04-16T05:12:09.329Z,0.95
2023-04-16T05:15:09.305Z,1.16
2023-04-16T05:18:09.268Z,0.79
2023-04-16T05:21:09.264Z,0.97
2023-04-16T05:24:09.402Z,0.89
2023-04-16T05:27:09.339Z,1.2
2023-04-16T05:30:09.325Z,1.18
2023-04-16T05:33:09.673Z,0.96
2023-04-16T05:36:09.628Z,1.29
2023-04-16T05:39:09.458Z,0.97
2023-04-16T05:42:09.313Z,0.88
2023-04-16T05:45:09.342Z,0.86
2023-04-16T05:48:09.346Z,1.16
2023-04-16T05:51:09.291Z,1.07
2023-04-16T05:54:09.288Z,1.14
2023-04-16T05:57:09.269Z,0.98
2023-04-16T06:00:09.613Z,1.11
2023-04-16T06:03:09.492Z,1.01
2023-04-16T06:06:09.348Z,1.06
2023-04-16T06:09:09.475Z,1.37
2023-04-16T06:12:09.358Z,1.24
2023-04-16T06:15:09.374Z,1.39
2023-04-16T06:18:09.405Z,1.26
2023-04-16T06:21:09.374Z,1.34
2023-04-16T06:24:09.380Z,1.28
2023-04-16T06:27:09.268Z,1.42
2023-04-16T06:30:09.377Z,1.23
2023-04-16T06:33:09.300Z,1.4
2023-04-16T06:36:09.313Z,0.9
2023-04-16T06:39:09.691Z,1
2023-04-16T06:42:09.293Z,1.17
2023-04-16T06:45:09.349Z,1.16
2023-04-16T06:48:09.325Z,1.33
2023-04-16T06:51:09.427Z,1.12
2023-04-16T06:54:09.340Z,0.9
2023-04-16T06:57:09.357Z,1.23
2023-04-16T07:00:09.357Z,1.28
2023-04-16T07:03:09.736Z,0.84
2023-04-16T07:06:09.405Z,1.11
2023-04-16T07:09:09.533Z,1.02
2023-04-16T07:12:09.406Z,1.11
2023-04-16T07:15:09.450Z,1.33
2023-04-16T07:18:09.455Z,1.36
2023-04-16T07:21:09.352Z,0.94
2023-04-16T07:24:09.359Z,1.17
2023-04-16T07:27:09.453Z,1.1
2023-04-16T07:30:09.354Z,0.94
2023-04-16T07:33:09.481Z,0.98
2023-04-16T07:36:09.456Z,1.15
2023-04-16T07:39:09.645Z,1.11
2023-04-16T07:42:09.370Z,1.04
2023-04-16T07:45:09.444Z,1.04
2023-04-16T07:48:09.394Z,1.01
2023-04-16T07:51:09.413Z,1.16
2023-04-16T07:54:09.451Z,1.28
2023-04-16T07:57:09.442Z,1.21
2023-04-16T08:00:09.390Z,0.87
2023-04-16T08:03:09.564Z,0.97
2023-04-16T08:06:09.429Z,0.93
2023-04-16T08:09:09.524Z,1
2023-04-16T08:12:09.405Z,1.06
2023-04-16T08:15:09.366Z,0.96
2023-04-16T08:18:09.535Z,1.36
2023-04-16T08:21:09.461Z,1.32
2023-04-16T08:24:09.501Z,1.27
2023-04-16T08:27:18.285Z,1.5
2023-04-16T08:30:09.479Z,1.09
2023-04-16T08:33:09.434Z,1.31
2023-04-16T08:36:09.456Z,0.94
2023-04-16T08:39:09.780Z,0.93
2023-04-16T08:42:09.433Z,1.19
2023-04-16T08:45:09.495Z,1.3
2023-04-16T08:48:09.395Z,1.62
2023-04-16T08:51:09.482Z,1.07
2023-04-16T08:54:09.491Z,1.17
2023-04-16T08:57:09.546Z,1.4
2023-04-16T09:00:09.475Z,1.48
2023-04-16T09:03:09.564Z,1.42
2023-04-16T09:06:09.446Z,1.19
2023-04-16T09:09:09.563Z,1.34
2023-04-16T09:12:09.498Z,1.26
2023-04-16T09:15:09.484Z,1.3
2023-04-16T09:18:09.547Z,1.36
2023-04-16T09:21:09.533Z,1.14
2023-04-16T09:24:09.422Z,1.21
2023-04-16T09:27:09.590Z,1.35
2023-04-16T09:30:09.546Z,1.23
2023-04-16T09:33:09.553Z,1.5
2023-04-16T09:36:09.469Z,1.49
2023-04-16T09:39:09.619Z,1.23
2023-04-16T09:42:09.449Z,1.35
2023-04-16T09:45:09.488Z,1.15
2023-04-16T09:48:09.501Z,1.41
2023-04-16T09:51:09.545Z,1.08
2023-04-16T09:54:09.513Z,1.62
2023-04-16T09:57:09.537Z,0.98
2023-04-16T10:00:09.503Z,0.99
2023-04-16T10:03:09.597Z,1.27
2023-04-16T10:06:09.509Z,0.99
2023-04-16T10:09:09.584Z,1.04
2023-04-16T10:12:09.563Z,0.75
2023-04-16T10:15:09.550Z,1
2023-04-16T10:18:09.511Z,0.94
2023-04-16T10:21:09.526Z,0.76
2023-04-16T10:24:09.550Z,1.11
2023-04-16T10:27:09.517Z,0.94
2023-04-16T10:30:09.580Z,0.89
2023-04-16T10:33:09.634Z,0.96
2023-04-16T10:36:09.575Z,1.08
2023-04-16T10:39:09.710Z,0.91
2023-04-16T10:42:09.604Z,1.27
2023-04-16T10:45:09.616Z,1.18
2023-04-16T10:48:09.566Z,1.13
2023-04-16T10:51:09.646Z,1.02
2023-04-16T10:54:09.562Z,1.1
2023-04-16T10:57:09.660Z,1.22
2023-04-16T11:00:09.646Z,0.87
2023-04-16T11:03:09.625Z,1.18
2023-04-16T11:06:09.632Z,1.29
2023-04-16T11:09:09.672Z,1.23
2023-04-16T11:12:09.557Z,1.3
2023-04-16T11:15:10.002Z,1.56
2023-04-16T11:18:09.718Z,1.26
2023-04-16T11:21:09.606Z,1.21
2023-04-16T11:24:09.568Z,1.32
2023-04-16T11:27:09.681Z,1.32
2023-04-16T11:30:09.621Z,1.09
2023-04-16T11:33:09.597Z,1.03
2023-04-16T11:36:09.634Z,1.49
2023-04-16T11:39:09.680Z,1.21
2023-04-16T11:42:09.662Z,1.33
2023-04-16T11:45:09.615Z,1.3
2023-04-16T11:48:11.056Z,1.24
2023-04-16T11:51:09.593Z,1.29
2023-04-16T11:54:11.787Z,1.24
2023-04-16T11:57:09.656Z,1.09
2023-04-16T12:00:10.605Z,1.21
2023-04-16T12:03:09.705Z,1.16
2023-04-16T12:06:09.573Z,1.16
2023-04-16T12:09:09.836Z,1.02
2023-04-16T12:12:09.660Z,1.22
2023-04-16T12:15:09.592Z,1.11
2023-04-16T12:18:12.103Z,1.35
2023-04-16T12:21:09.652Z,1.03
2023-04-16T12:24:09.645Z,1.21
2023-04-16T12:27:09.714Z,1.21
2023-04-16T12:30:09.687Z,1.08
2023-04-16T12:33:09.715Z,1.08
2023-04-16T12:36:09.639Z,1.23
2023-04-16T12:39:09.710Z,1.05
2023-04-16T12:42:09.721Z,1.1
2023-04-16T12:45:09.692Z,1.14
2023-04-16T12:48:09.652Z,1.33
2023-04-16T12:51:09.682Z,1.23
2023-04-16T12:54:09.661Z,1.14
2023-04-16T12:57:09.732Z,0.98
2023-04-16T13:00:09.699Z,0.99
2023-04-16T13:03:09.682Z,1.04
2023-04-16T13:06:09.625Z,1.17
2023-04-16T13:09:09.813Z,0.92
2023-04-16T13:12:09.673Z,1.08
2023-04-16T13:15:09.749Z,1.1
2023-04-16T13:18:09.669Z,1.24
2023-04-16T13:21:09.931Z,0.86
2023-04-16T13:24:09.656Z,0.82
2023-04-16T13:27:09.667Z,0.95
2023-04-16T13:30:09.716Z,0.96
2023-04-16T13:33:09.764Z,0.88
2023-04-16T13:36:09.743Z,1.2
2023-04-16T13:39:09.948Z,0.81
2023-04-16T13:42:09.770Z,1.23
2023-04-16T13:45:09.826Z,0.73
2023-04-16T13:48:09.710Z,1.01
2023-04-16T13:51:09.752Z,0.81
2023-04-16T13:54:09.742Z,1.19
2023-04-16T13:57:09.662Z,0.98
2023-04-16T14:00:11.278Z,1.26
2023-04-16T14:03:09.912Z,0.99
2023-04-16T14:06:09.776Z,0.9
2023-04-16T14:09:09.827Z,0.82
2023-04-16T14:12:09.689Z,0.81
2023-04-16T14:15:09.750Z,0.96
2023-04-16T14:18:09.705Z,0.67
2023-04-16T14:21:09.804Z,0.96
2023-04-16T14:24:09.712Z,0.95
2023-04-16T14:27:09.745Z,1
2023-04-16T14:30:09.744Z,0.8
2023-04-16T14:33:09.762Z,0.56
2023-04-16T14:36:09.796Z,0.71
2023-04-16T14:39:09.983Z,0.89
2023-04-16T14:42:09.787Z,1.03
2023-04-16T14:45:09.773Z,0.95
2023-04-16T14:48:09.788Z,0.84
2023-04-16T14:51:09.750Z,0.74
2023-04-16T14:54:09.831Z,0.75
2023-04-16T14:57:09.819Z,0.69
2023-04-16T15:00:09.826Z,0.54
2023-04-16T15:03:09.791Z,0.91
2023-04-16T15:06:09.945Z,0.75
2023-04-16T15:09:09.926Z,0.65
2023-04-16T15:12:09.972Z,1.13
2023-04-16T15:15:09.827Z,1
2023-04-16T15:18:09.831Z,1.13
2023-04-16T15:21:11.899Z,1.03
2023-04-16T15:24:10.144Z,0.76
2023-04-16T15:27:11.726Z,1
2023-04-16T15:30:09.853Z,1.41
2023-04-16T15:33:09.796Z,1.38
2023-04-16T15:36:09.782Z,1.04
2023-04-16T15:39:10.120Z,0.94
2023-04-16T15:42:09.801Z,0.9
2023-04-16T15:45:09.798Z,0.99
2023-04-16T15:48:09.975Z,0.89
2023-04-16T15:51:09.799Z,0.81
2023-04-16T15:54:09.876Z,0.95
2023-04-16T15:57:09.814Z,0.71
2023-04-16T16:00:11.262Z,1.23
2023-04-16T16:03:10.025Z,1.08
2023-04-16T16:06:09.870Z,0.96
2023-04-16T16:09:09.898Z,0.81
2023-04-16T16:12:09.827Z,0.72
2023-04-16T16:15:09.879Z,0.85
2023-04-16T16:18:09.835Z,1.09
2023-04-16T16:21:09.816Z,0.95
2023-04-16T16:24:09.914Z,1.08
2023-04-16T16:27:09.894Z,0.81
2023-04-16T16:30:09.883Z,0.78
2023-04-16T16:33:09.904Z,0.91
2023-04-16T16:36:09.843Z,0.76
2023-04-16T16:39:10.032Z,0.88
2023-04-16T16:42:09.885Z,0.94
2023-04-16T16:45:09.880Z,1.08
2023-04-16T16:48:09.912Z,1.2
2023-04-16T16:51:09.925Z,0.93
2023-04-16T16:54:09.854Z,0.91
2023-04-16T16:57:09.872Z,0.92
2023-04-16T17:00:09.868Z,0.88
2023-04-16T17:03:10.007Z,1.09
2023-04-16T17:06:09.856Z,0.96
2023-04-16T17:09:10.190Z,0.98
2023-04-16T17:12:09.858Z,0.77
2023-04-16T17:15:09.896Z,1.12
2023-04-16T17:18:09.929Z,1.1
2023-04-16T17:21:09.888Z,1.1
2023-04-16T17:24:10.192Z,1.24
2023-04-16T17:27:09.876Z,1.08
2023-04-16T17:30:09.936Z,0.84
2023-04-16T17:33:09.966Z,1.08
2023-04-16T17:36:10.000Z,0.76
2023-04-16T17:39:09.988Z,0.6
2023-04-16T17:42:10.019Z,0.64
2023-04-16T17:45:10.044Z,0.65
2023-04-16T17:48:09.988Z,0.56
2023-04-16T17:51:09.925Z,1.11
2023-04-16T17:54:10.120Z,0.82
2023-04-16T17:57:09.910Z,0.65
2023-04-16T18:00:09.917Z,0.77
2023-04-16T18:03:10.081Z,0.67
2023-04-16T18:06:09.916Z,0.61
2023-04-16T18:09:09.930Z,0.55
2023-04-16T18:12:10.005Z,0.44
2023-04-16T18:15:09.889Z,0.59
2023-04-16T18:18:10.064Z,0.56
2023-04-16T18:21:10.030Z,0.76
2023-04-16T18:24:10.341Z,0.72
2023-04-16T18:27:10.177Z,1.15
2023-04-16T18:30:18.851Z,0.97
2023-04-16T18:36:09.939Z,0.86
2023-04-16T18:39:10.087Z,0.81
2023-04-16T18:42:10.053Z,1.2
2023-04-16T18:45:10.002Z,1.13
2023-04-16T18:48:09.943Z,0.89
2023-04-16T18:51:10.022Z,0.73
2023-04-16T18:54:10.033Z,0.88
2023-04-16T18:57:10.009Z,1.07
2023-04-16T19:00:10.012Z,1.11
2023-04-16T19:03:09.981Z,0.83
2023-04-16T19:06:10.022Z,0.61
2023-04-16T19:09:11.511Z,0.54
2023-04-16T19:12:09.976Z,0.33
2023-04-16T19:15:10.029Z,0.56
2023-04-16T19:18:10.027Z,0.39
2023-04-16T19:21:10.068Z,0.22
2023-04-16T19:24:10.043Z,0.53
2023-04-16T19:27:09.970Z,0.31
2023-04-16T19:30:10.090Z,0.34
2023-04-16T19:33:10.089Z,0.31
2023-04-16T19:36:10.008Z,0.13
2023-04-16T19:39:10.120Z,0.23
2023-04-16T19:42:10.173Z,0.14
2023-04-16T19:45:10.031Z,0.06
2023-04-16T19:48:10.105Z,0.22
2023-04-16T19:51:09.984Z,0.23
2023-04-16T19:54:10.061Z,0.51
2023-04-16T19:57:10.024Z,0.31
2023-04-16T20:00:09.987Z,0.5
2023-04-16T20:03:10.063Z,0.34
2023-04-16T20:06:10.393Z,0.31
2023-04-16T20:09:13.127Z,0.29
2023-04-16T20:12:10.007Z,0.19
2023-04-16T20:15:10.088Z,0.25
2023-04-16T20:18:10.064Z,0.22
2023-04-16T20:21:10.129Z,0.29
2023-04-16T20:24:10.109Z,0.19
2023-04-16T20:27:10.075Z,0.23
2023-04-16T20:30:10.034Z,0.33
2023-04-16T20:33:10.023Z,0.56
2023-04-16T20:36:10.050Z,0.36
2023-04-16T20:39:10.253Z,0.26
2023-04-16T20:42:10.030Z,0.27
2023-04-16T20:45:10.051Z,0.35
2023-04-16T20:48:10.245Z,0.5
2023-04-16T20:51:10.142Z,0.52
2023-04-16T20:54:10.088Z,0.84
2023-04-16T20:57:10.118Z,0.68
2023-04-16T21:00:10.146Z,0.78
2023-04-16T21:03:10.296Z,0.68
2023-04-16T21:06:10.157Z,0.46
2023-04-16T21:09:10.158Z,0.51
2023-04-16T21:12:10.141Z,0.56
2023-04-16T21:15:10.141Z,0.49
2023-04-16T21:18:10.092Z,0.53
2023-04-16T21:21:10.180Z,0.73
2023-04-16T21:24:10.100Z,1.01
2023-04-16T21:27:10.140Z,0.99
2023-04-16T21:30:10.185Z,0.71
2023-04-16T21:33:10.085Z,0.66
2023-04-16T21:36:10.078Z,0.63
2023-04-16T21:39:10.329Z,0.79
2023-04-16T21:42:10.105Z,0.77
2023-04-16T21:45:10.234Z,0.66
2023-04-16T21:48:10.199Z,0.72
2023-04-16T21:51:10.168Z,0.75
2023-04-16T21:54:10.184Z,0.93
2023-04-16T21:57:10.153Z,0.95
2023-04-16T22:00:10.135Z,0.91
2023-04-16T22:03:10.265Z,0.61
2023-04-16T22:06:10.214Z,0.58
2023-04-16T22:09:10.259Z,0.55
2023-04-16T22:12:10.226Z,0.52
2023-04-16T22:15:10.156Z,0.74
2023-04-16T22:18:10.223Z,0.66
2023-04-16T22:21:10.194Z,0.89
2023-04-16T22:24:10.259Z,1.21
2023-04-16T22:27:10.247Z,0.76
2023-04-16T22:30:10.153Z,0.89
2023-04-16T22:33:10.119Z,0.91
2023-04-16T22:36:10.203Z,1.09
2023-04-16T22:39:10.318Z,0.97
2023-04-16T22:42:10.129Z,0.8
2023-04-16T22:45:10.130Z,1.02
2023-04-16T22:48:10.209Z,0.64
2023-04-16T22:51:10.145Z,0.63
2023-04-16T22:54:10.859Z,0.47
2023-04-16T22:57:10.203Z,0.49
2023-04-16T23:00:10.313Z,0.74
2023-04-16T23:03:10.309Z,0.64
2023-04-16T23:06:10.187Z,0.73
2023-04-16T23:09:10.442Z,0.71
2023-04-16T23:12:10.260Z,0.79
2023-04-16T23:15:10.289Z,0.36
2023-04-16T23:18:10.246Z,0.35
2023-04-16T23:21:10.182Z,0.64
2023-04-16T23:24:10.200Z,0.55
2023-04-16T23:27:10.250Z,0.31
2023-04-16T23:30:10.217Z,0.53
2023-04-16T23:33:10.189Z,0.63
2023-04-16T23:36:10.208Z,0.4
2023-04-16T23:39:10.470Z,0.53
2023-04-16T23:42:10.387Z,0.47
2023-04-16T23:45:10.196Z,0.35
2023-04-16T23:48:10.269Z,0.17
2023-04-16T23:51:10.224Z,0.32
2023-04-16T23:54:10.315Z,0.32
2023-04-16T23:57:10.266Z,0.21
